Time;durP1;ratioP1;P1;durP2;ratioP2;P2;SDS_P1;SDS_P2;PMS_P1;PMS_P2;Temp;Humidity;BMP_temperature;BMP_pressure;BME280_temperature;BME280_humidity;BME280_pressure;Samples;Min_cycle;Max_cycle;Signal;HPM_P1;HPM_P2
2022/01/17 00:00:38;;;;;;;13.13;5.78;;;28.70;99.90;;;;;;5038211;28;20209;-83
2022/01/17 00:03:11;;;;;;;9.93;4.78;;;28.80;99.90;;;;;;5034736;28;20183;-80
2022/01/17 00:05:42;;;;;;;16.58;6.00;;;28.90;99.90;;;;;;5031579;28;20222;-81
2022/01/17 00:08:13;;;;;;;11.35;4.95;;;28.80;99.90;;;;;;5034562;28;20209;-81
2022/01/17 00:10:44;;;;;;;6.28;4.15;;;28.90;99.90;;;;;;5036913;28;20218;-81
2022/01/17 00:13:23;;;;;;;7.47;4.10;;;28.80;99.90;;;;;;5032488;28;20626;-80
2022/01/17 00:15:57;;;;;;;9.63;4.20;;;28.80;99.90;;;;;;5027226;28;20197;-81
2022/01/17 00:19:02;;;;;;;8.18;4.22;;;28.90;99.90;;;;;;5033365;28;20276;-82
2022/01/17 00:21:23;;;;;;;9.48;3.92;;;28.90;99.90;;;;;;5033566;28;20201;-81
2022/01/17 00:23:54;;;;;;;10.48;4.35;;;29.00;99.90;;;;;;5036453;28;20226;-81
2022/01/17 00:26:24;;;;;;;11.30;4.40;;;29.20;99.90;;;;;;5036111;28;20186;-82
2022/01/17 00:28:55;;;;;;;7.88;3.90;;;29.30;99.90;;;;;;5031983;28;20612;-83
2022/01/17 00:31:26;;;;;;;6.25;4.40;;;29.50;99.90;;;;;;5032092;28;20233;-80
2022/01/17 00:33:58;;;;;;;9.10;3.97;;;29.60;99.90;;;;;;5030852;28;20561;-80
2022/01/17 00:36:29;;;;;;;10.20;4.18;;;29.60;99.90;;;;;;5035274;28;20557;-80
2022/01/17 00:38:59;;;;;;;9.02;3.92;;;29.60;99.90;;;;;;5031195;28;20577;-79
2022/01/17 00:41:30;;;;;;;8.30;4.13;;;29.80;99.90;;;;;;5032423;28;20198;-80
2022/01/17 00:44:01;;;;;;;6.75;3.75;;;29.90;99.90;;;;;;5033841;28;20198;-79
2022/01/17 00:46:31;;;;;;;7.65;4.10;;;30.10;99.90;;;;;;5033429;28;20202;-80
2022/01/17 00:49:04;;;;;;;8.95;4.13;;;29.90;99.90;;;;;;5032297;28;20202;-80
2022/01/17 00:51:35;;;;;;;9.48;4.25;;;30.00;99.90;;;;;;5034267;28;20190;-79
2022/01/17 00:54:06;;;;;;;8.82;4.20;;;30.10;99.90;;;;;;5033368;28;20190;-79
2022/01/17 00:56:36;;;;;;;9.10;4.40;;;30.10;99.90;;;;;;5033057;28;20194;-80
2022/01/17 00:59:07;;;;;;;9.20;4.40;;;30.20;99.90;;;;;;5033358;28;20217;-79
2022/01/17 01:01:38;;;;;;;10.93;5.13;;;30.40;99.90;;;;;;5033074;28;20186;-83
2022/01/17 01:04:10;;;;;;;7.95;4.00;;;30.40;99.90;;;;;;5032972;28;20191;-81
2022/01/17 01:06:41;;;;;;;7.35;3.97;;;30.20;99.90;;;;;;5032293;28;20570;-83
2022/01/17 01:09:14;;;;;;;11.02;4.75;;;30.20;99.90;;;;;;5033072;28;20197;-80
2022/01/17 01:11:45;;;;;;;7.40;4.57;;;30.30;99.90;;;;;;5032902;28;20570;-81
2022/01/17 01:14:16;;;;;;;10.13;4.47;;;30.50;99.90;;;;;;5033074;28;20202;-81
2022/01/17 01:16:46;;;;;;;9.95;4.05;;;30.40;99.90;;;;;;5032906;28;20195;-82
2022/01/17 01:19:28;;;;;;;11.57;4.80;;;30.40;99.90;;;;;;5032815;28;20284;-82
2022/01/17 01:27:47;;;;;;;10.45;4.40;;;30.40;99.90;;;;;;5032895;28;20256;-82
2022/01/17 01:30:20;;;;;;;8.75;4.55;;;30.40;99.90;;;;;;5026412;28;20190;-82
2022/01/17 01:32:53;;;;;;;10.52;4.70;;;30.30;99.90;;;;;;5032616;28;20192;-81
2022/01/17 01:35:28;;;;;;;9.50;4.38;;;30.20;99.90;;;;;;5032646;28;20592;-82
2022/01/17 01:38:00;;;;;;;11.18;4.38;;;30.30;99.90;;;;;;5032253;28;20245;-81
2022/01/17 01:40:32;;;;;;;7.72;4.20;;;30.20;99.90;;;;;;5032824;28;20190;-82
2022/01/17 01:43:03;;;;;;;11.50;4.57;;;30.40;99.90;;;;;;5032556;28;20202;-81
2022/01/17 01:45:34;;;;;;;10.23;4.30;;;30.40;99.90;;;;;;5032715;28;20223;-83
2022/01/17 01:48:05;;;;;;;10.43;4.60;;;30.40;99.90;;;;;;5032419;28;20190;-81
2022/01/17 01:50:38;;;;;;;10.82;4.50;;;30.50;99.90;;;;;;5032409;28;20193;-83
2022/01/17 01:53:09;;;;;;;12.63;4.65;;;30.60;99.90;;;;;;5032541;28;20186;-82
2022/01/17 01:55:39;;;;;;;12.30;4.28;;;30.50;99.90;;;;;;5032267;28;20218;-81
2022/01/17 01:58:11;;;;;;;8.75;4.60;;;30.50;99.90;;;;;;5032264;28;20190;-81
2022/01/17 02:00:41;;;;;;;9.98;4.57;;;30.50;99.90;;;;;;5032447;28;20654;-80
2022/01/17 02:03:12;;;;;;;10.77;4.63;;;30.50;99.90;;;;;;5032747;28;20201;-82
2022/01/17 02:05:45;;;;;;;13.82;4.72;;;30.30;99.90;;;;;;5032360;28;20194;-82
2022/01/17 02:08:17;;;;;;;13.82;5.03;;;30.10;99.90;;;;;;5032563;28;20217;-82
2022/01/17 02:10:47;;;;;;;12.73;4.65;;;29.80;99.90;;;;;;5032328;28;20202;-82
2022/01/17 02:13:18;;;;;;;16.63;4.78;;;29.70;99.90;;;;;;5024923;28;20198;-83
2022/01/17 02:15:49;;;;;;;14.48;4.90;;;29.70;99.90;;;;;;5032357;28;20193;-83
2022/01/17 02:18:29;;;;;;;14.05;4.97;;;29.60;99.90;;;;;;5025562;28;20561;-79
2022/01/17 02:21:20;;;;;;;15.23;5.20;;;29.70;99.90;;;;;;5035805;28;20197;-80
2022/01/17 02:23:52;;;;;;;11.70;4.50;;;29.80;99.90;;;;;;5035809;28;20273;-80
2022/01/17 02:26:24;;;;;;;14.07;5.05;;;30.00;99.90;;;;;;5033659;28;20209;-80
2022/01/17 02:28:57;;;;;;;16.15;5.15;;;30.00;99.90;;;;;;5037250;28;20202;-79
2022/01/17 02:31:28;;;;;;;14.20;5.05;;;30.00;99.90;;;;;;5036018;28;20197;-80
2022/01/17 02:33:59;;;;;;;18.15;5.20;;;30.20;99.90;;;;;;5035409;28;20261;-80
2022/01/17 02:36:31;;;;;;;12.07;5.03;;;30.30;99.90;;;;;;5035377;28;20186;-80
2022/01/17 02:39:04;;;;;;;15.02;5.05;;;30.40;99.90;;;;;;5050906;28;20217;-81
2022/01/17 02:41:36;;;;;;;13.32;5.00;;;30.30;99.90;;;;;;5056106;28;20598;-81
2022/01/17 02:44:07;;;;;;;14.88;4.60;;;30.20;99.90;;;;;;5034438;28;20620;-81
2022/01/17 02:46:37;;;;;;;14.15;5.10;;;30.30;99.90;;;;;;5037344;28;20205;-78
2022/01/17 02:49:10;;;;;;;14.57;4.85;;;30.20;99.90;;;;;;5038843;28;20202;-79
2022/01/17 02:51:44;;;;;;;10.73;4.53;;;30.10;99.90;;;;;;5033806;28;20240;-78
2022/01/17 02:54:14;;;;;;;15.40;4.38;;;30.00;99.90;;;;;;5039080;28;20272;-79
2022/01/17 02:56:45;;;;;;;14.63;4.43;;;29.90;99.90;;;;;;5034674;28;20191;-79
2022/01/17 02:59:16;;;;;;;17.02;4.88;;;29.80;99.90;;;;;;5041433;28;20217;-81
2022/01/17 03:01:48;;;;;;;10.95;4.35;;;29.70;99.90;;;;;;5037736;28;20183;-78
2022/01/17 03:04:19;;;;;;;13.95;4.60;;;29.80;99.90;;;;;;5035284;28;20248;-79
2022/01/17 03:06:51;;;;;;;10.48;4.03;;;29.50;99.90;;;;;;5034525;28;20191;-78
2022/01/17 03:09:24;;;;;;;8.57;4.32;;;29.50;99.90;;;;;;5035217;28;20195;-78
2022/01/17 03:11:54;;;;;;;12.30;4.50;;;29.60;99.90;;;;;;5031650;28;20201;-80
2022/01/17 03:14:25;;;;;;;14.63;4.50;;;29.60;99.90;;;;;;5034366;28;20195;-81
2022/01/17 03:16:56;;;;;;;10.90;4.82;;;29.80;99.90;;;;;;5034215;28;20575;-82
2022/01/17 03:19:26;;;;;;;14.15;4.80;;;29.70;99.90;;;;;;5035145;28;20220;-81
2022/01/17 03:21:59;;;;;;;19.48;4.93;;;29.70;99.90;;;;;;5034749;28;20525;-80
2022/01/17 03:24:29;;;;;;;14.77;5.20;;;29.80;99.90;;;;;;5034131;28;20705;-82
2022/01/17 03:27:00;;;;;;;11.82;4.88;;;29.70;99.90;;;;;;5034738;28;20222;-82
2022/01/17 03:29:31;;;;;;;15.23;5.63;;;29.70;99.90;;;;;;5033649;28;20292;-83
2022/01/17 03:32:01;;;;;;;12.00;5.90;;;29.50;99.90;;;;;;5035580;28;20191;-78
2022/01/17 03:34:32;;;;;;;14.48;5.93;;;29.50;99.90;;;;;;5034015;28;20662;-81
2022/01/17 03:37:05;;;;;;;13.98;6.60;;;29.50;99.90;;;;;;5029595;28;20190;-82
2022/01/17 03:39:35;;;;;;;17.17;7.07;;;29.50;99.90;;;;;;5034356;28;20218;-82
2022/01/17 03:42:06;;;;;;;14.35;7.03;;;29.50;99.90;;;;;;5035110;28;20185;-84
2022/01/17 03:44:37;;;;;;;14.02;7.43;;;29.40;99.90;;;;;;5032212;28;20190;-82
2022/01/17 03:47:08;;;;;;;15.52;7.47;;;29.10;99.90;;;;;;5033436;28;20256;-81
2022/01/17 03:49:38;;;;;;;19.33;7.80;;;29.00;99.90;;;;;;5031458;28;20577;-83
2022/01/17 03:52:11;;;;;;;18.05;8.15;;;28.90;99.90;;;;;;5034192;28;20191;-83
2022/01/17 03:54:46;;;;;;;14.48;8.13;;;29.00;99.90;;;;;;5033649;28;20214;-81
2022/01/17 03:57:19;;;;;;;17.02;7.80;;;28.90;99.90;;;;;;5034635;28;20755;-82
2022/01/17 03:59:50;;;;;;;17.15;8.45;;;28.70;99.90;;;;;;5029736;28;20677;-80
2022/01/17 04:02:20;;;;;;;23.15;9.93;;;28.70;99.90;;;;;;5031575;28;20609;-85
2022/01/17 04:04:52;;;;;;;18.98;9.30;;;28.70;99.90;;;;;;5033558;28;20643;-82
2022/01/17 04:07:24;;;;;;;19.75;9.50;;;28.60;99.90;;;;;;5033460;28;20281;-78
2022/01/17 04:09:55;;;;;;;19.70;9.35;;;28.70;99.90;;;;;;5034390;28;20244;-79
2022/01/17 04:12:26;;;;;;;19.70;8.98;;;28.70;99.90;;;;;;5033616;28;20244;-79
2022/01/17 04:14:57;;;;;;;19.10;8.77;;;28.70;99.90;;;;;;5033236;28;20206;-79
2022/01/17 04:17:29;;;;;;;21.95;10.13;;;28.60;99.90;;;;;;5033033;28;20202;-79
2022/01/17 04:20:04;;;;;;;19.13;9.07;;;28.70;99.90;;;;;;5033769;28;20265;-80
2022/01/17 04:22:40;;;;;;;22.80;9.98;;;28.70;99.90;;;;;;5033257;28;20225;-78
2022/01/17 04:25:12;;;;;;;15.75;9.52;;;28.70;99.90;;;;;;5033469;28;20232;-79
2022/01/17 04:27:43;;;;;;;15.77;10.32;;;28.60;99.90;;;;;;5031661;28;20210;-80
2022/01/17 04:30:14;;;;;;;20.67;10.15;;;28.60;99.90;;;;;;5032827;28;20260;-80
2022/01/17 04:32:45;;;;;;;15.63;10.52;;;28.60;99.90;;;;;;5032704;28;20203;-77
2022/01/17 04:35:20;;;;;;;19.83;10.68;;;28.50;99.90;;;;;;5032972;28;20209;-80
2022/01/17 04:37:55;;;;;;;17.63;9.88;;;28.40;99.90;;;;;;5025606;28;20205;-78
2022/01/17 04:40:26;;;;;;;17.70;9.65;;;28.30;99.90;;;;;;5032761;28;20224;-79
2022/01/17 04:42:56;;;;;;;20.00;9.35;;;28.30;99.90;;;;;;5031237;28;20201;-81
2022/01/17 04:45:27;;;;;;;19.67;9.10;;;28.40;99.90;;;;;;5031916;28;20206;-79
2022/01/17 04:47:58;;;;;;;16.77;9.52;;;28.40;99.90;;;;;;5027995;28;20994;-80
2022/01/17 04:50:30;;;;;;;21.95;9.98;;;28.30;99.90;;;;;;5028620;28;20713;-80
2022/01/17 04:53:03;;;;;;;16.80;9.20;;;28.30;99.90;;;;;;5027572;28;20187;-80
2022/01/17 04:55:36;;;;;;;18.77;9.00;;;28.20;99.90;;;;;;5028942;28;20643;-82
2022/01/17 04:58:07;;;;;;;18.70;8.90;;;28.20;99.90;;;;;;5028667;28;20630;-78
2022/01/17 05:00:39;;;;;;;19.30;9.55;;;28.20;99.90;;;;;;5031111;28;20648;-82
2022/01/17 05:03:10;;;;;;;18.80;9.88;;;28.30;99.90;;;;;;5032448;28;20197;-78
2022/01/17 05:05:40;;;;;;;18.65;10.30;;;28.30;99.90;;;;;;5032932;28;20248;-81
2022/01/17 05:08:13;;;;;;;19.45;9.90;;;28.30;99.90;;;;;;5030582;28;20216;-81
2022/01/17 05:10:51;;;;;;;19.88;9.98;;;28.20;99.90;;;;;;5032963;28;20198;-79
2022/01/17 05:13:26;;;;;;;20.08;10.27;;;28.20;99.90;;;;;;5034365;28;20190;-80
2022/01/17 05:16:06;;;;;;;24.85;12.07;;;28.20;99.90;;;;;;5032969;28;20193;-80
2022/01/17 05:21:24;;;;;;;18.23;10.32;;;28.10;99.90;;;;;;5032575;28;20701;-83
2022/01/17 05:23:56;;;;;;;20.67;10.68;;;28.10;99.90;;;;;;5031617;28;20230;-84
2022/01/17 05:26:27;;;;;;;20.17;10.75;;;28.00;99.90;;;;;;5038858;28;20198;-80
2022/01/17 05:28:58;;;;;;;21.40;10.63;;;27.90;99.90;;;;;;5032577;28;20553;-86
2022/01/17 05:31:28;;;;;;;19.20;10.13;;;28.00;99.90;;;;;;5032488;28;20197;-81
2022/01/17 05:33:59;;;;;;;20.42;10.25;;;27.90;99.90;;;;;;5032333;28;20197;-83
2022/01/17 05:36:29;;;;;;;19.70;9.73;;;27.80;99.90;;;;;;5032799;28;20193;-83
2022/01/17 05:39:02;;;;;;;20.02;9.30;;;27.80;99.90;;;;;;5031662;28;20182;-82
2022/01/17 05:41:33;;;;;;;19.70;9.73;;;27.70;99.90;;;;;;5026685;28;20233;-83
2022/01/17 05:44:03;;;;;;;18.15;8.73;;;27.70;99.90;;;;;;5032428;28;20187;-81
2022/01/17 05:46:34;;;;;;;16.45;8.80;;;27.70;99.90;;;;;;5030513;28;20198;-82
2022/01/17 05:49:05;;;;;;;17.92;9.43;;;27.70;99.90;;;;;;5031336;28;20186;-82
2022/01/17 05:51:35;;;;;;;17.25;9.02;;;27.70;99.90;;;;;;5032527;28;20191;-79
2022/01/17 05:54:08;;;;;;;16.30;8.82;;;27.70;99.90;;;;;;5033365;28;20217;-79
2022/01/17 05:56:38;;;;;;;15.77;8.27;;;27.70;99.90;;;;;;5036588;28;20651;-79
2022/01/17 05:59:09;;;;;;;18.05;8.20;;;27.60;99.90;;;;;;5036616;28;20185;-80
2022/01/17 06:01:42;;;;;;;20.33;8.23;;;27.50;99.90;;;;;;5036424;28;20217;-78
2022/01/17 06:04:13;;;;;;;14.60;7.75;;;27.50;99.90;;;;;;5036048;28;20193;-80
2022/01/17 06:06:44;;;;;;;19.23;7.22;;;27.40;99.90;;;;;;5036511;28;20198;-80
2022/01/17 06:09:16;;;;;;;16.40;7.43;;;27.40;99.90;;;;;;5036401;28;20198;-79
2022/01/17 06:11:47;;;;;;;17.52;7.35;;;27.50;99.90;;;;;;5036523;28;20219;-79
2022/01/17 06:14:18;;;;;;;11.85;7.15;;;27.50;99.90;;;;;;5035550;28;20198;-79
2022/01/17 06:16:49;;;;;;;14.48;7.15;;;27.60;99.90;;;;;;5037466;28;20700;-81
2022/01/17 06:19:21;;;;;;;15.30;6.88;;;27.60;99.90;;;;;;5037969;28;20198;-80
2022/01/17 06:21:51;;;;;;;10.63;5.60;;;27.70;99.90;;;;;;5035578;28;20214;-79
2022/01/17 06:24:24;;;;;;;12.55;6.13;;;27.60;99.90;;;;;;5037514;28;20241;-78
2022/01/17 06:26:55;;;;;;;16.35;5.70;;;27.50;99.90;;;;;;5031344;28;20273;-77
2022/01/17 06:29:26;;;;;;;13.52;4.57;;;27.40;99.90;;;;;;5035772;28;20186;-79
2022/01/17 06:31:56;;;;;;;11.73;5.10;;;27.40;99.90;;;;;;5039229;28;20189;-78
2022/01/17 06:34:27;;;;;;;13.68;5.10;;;27.40;99.90;;;;;;5037641;28;20579;-80
2022/01/17 06:36:58;;;;;;;10.10;4.55;;;27.40;99.90;;;;;;5030833;28;20256;-79
2022/01/17 06:39:30;;;;;;;10.15;4.75;;;27.50;99.90;;;;;;5034696;28;20194;-80
2022/01/17 06:42:01;;;;;;;12.27;4.50;;;27.50;99.90;;;;;;5035960;28;20191;-79
2022/01/17 06:44:32;;;;;;;10.43;4.40;;;27.50;99.90;;;;;;5043575;28;20190;-81
2022/01/17 06:47:02;;;;;;;10.95;4.30;;;27.40;99.90;;;;;;5035998;28;20186;-79
2022/01/17 06:49:33;;;;;;;8.50;3.67;;;27.40;99.90;;;;;;5031888;28;20639;-79
2022/01/17 06:52:04;;;;;;;12.30;4.10;;;27.40;99.90;;;;;;5035822;28;20193;-80
2022/01/17 06:54:36;;;;;;;8.68;3.53;;;27.40;99.90;;;;;;5034466;28;20229;-80
2022/01/17 06:57:07;;;;;;;7.47;3.70;;;27.30;99.90;;;;;;5041876;28;20256;-79
2022/01/17 06:59:38;;;;;;;10.75;3.70;;;27.30;99.90;;;;;;5035540;28;20186;-79
2022/01/17 07:02:08;;;;;;;7.25;3.30;;;27.30;99.90;;;;;;5035406;28;20194;-78
2022/01/17 07:04:39;;;;;;;8.02;3.53;;;27.30;99.90;;;;;;5033791;28;20187;-80
2022/01/17 07:07:10;;;;;;;7.65;3.72;;;27.30;99.90;;;;;;5038421;28;20248;-80
2022/01/17 07:09:45;;;;;;;8.50;5.63;;;27.30;99.90;;;;;;5032904;28;20197;-79
2022/01/17 07:12:16;;;;;;;8.93;4.43;;;27.30;99.90;;;;;;5034796;28;20236;-78
2022/01/17 07:14:47;;;;;;;7.05;3.40;;;27.30;99.90;;;;;;5024642;28;20221;-78
2022/01/17 07:17:18;;;;;;;10.23;3.80;;;27.30;99.90;;;;;;5025332;28;20210;-80
2022/01/17 07:19:50;;;;;;;9.85;3.63;;;27.30;99.90;;;;;;5028731;28;20202;-80
2022/01/17 07:22:21;;;;;;;7.32;3.60;;;27.20;99.90;;;;;;5027599;28;20556;-80
2022/01/17 07:24:54;;;;;;;7.90;3.30;;;27.20;99.90;;;;;;5028617;28;20307;-80
2022/01/17 07:27:25;;;;;;;8.93;3.40;;;27.10;99.90;;;;;;5028057;28;20234;-81
2022/01/17 07:29:56;;;;;;;8.90;3.10;;;27.10;99.90;;;;;;5027558;28;20281;-79
2022/01/17 07:32:27;;;;;;;8.50;3.58;;;27.00;99.90;;;;;;5027698;28;20242;-81
2022/01/17 07:34:58;;;;;;;7.43;2.90;;;27.00;99.90;;;;;;5027593;28;20198;-82
2022/01/17 07:37:28;;;;;;;10.68;3.50;;;27.00;99.90;;;;;;5028044;28;20194;-80
2022/01/17 07:40:01;;;;;;;8.25;3.30;;;27.00;99.90;;;;;;5026680;28;20202;-79
2022/01/17 07:42:32;;;;;;;8.57;2.97;;;26.90;99.90;;;;;;5026911;28;20209;-80
2022/01/17 07:45:09;;;;;;;8.93;3.00;;;26.80;99.90;;;;;;5026614;28;20198;-80
2022/01/17 07:47:44;;;;;;;10.90;3.38;;;26.80;99.90;;;;;;5026570;28;20196;-79
2022/01/17 07:50:19;;;;;;;9.48;3.05;;;26.70;99.90;;;;;;5027083;28;20213;-80
2022/01/17 07:52:50;;;;;;;14.15;3.38;;;26.70;99.90;;;;;;5027475;28;20202;-81
2022/01/17 07:55:24;;;;;;;5.95;3.17;;;26.70;99.90;;;;;;5027421;28;20234;-80
2022/01/17 07:57:54;;;;;;;10.60;3.25;;;26.70;99.90;;;;;;5027744;28;20202;-79
2022/01/17 08:00:25;;;;;;;11.60;3.10;;;26.60;99.90;;;;;;5028346;28;20265;-79
2022/01/17 08:02:58;;;;;;;13.27;3.22;;;26.60;99.90;;;;;;5026787;28;20206;-80
2022/01/17 08:05:29;;;;;;;8.15;3.00;;;26.60;99.90;;;;;;5028533;28;20208;-81
2022/01/17 08:08:00;;;;;;;6.05;2.80;;;26.60;99.90;;;;;;5027479;28;20248;-80
2022/01/17 08:10:36;;;;;;;10.32;3.25;;;26.50;99.90;;;;;;5026177;28;20206;-83
2022/01/17 08:13:07;;;;;;;14.13;3.85;;;26.50;99.90;;;;;;5028473;28;20658;-81
2022/01/17 08:15:38;;;;;;;7.13;2.50;;;26.50;99.90;;;;;;5026742;28;20198;-82
2022/01/17 08:18:08;;;;;;;10.02;2.90;;;26.50;99.90;;;;;;5026973;28;20198;-80
2022/01/17 08:20:39;;;;;;;8.88;2.75;;;26.50;99.90;;;;;;5027327;28;20230;-83
2022/01/17 08:23:10;;;;;;;6.35;2.22;;;26.40;99.90;;;;;;5025836;28;20892;-82
2022/01/17 08:25:42;;;;;;;7.00;2.97;;;26.40;99.90;;;;;;5026875;28;20206;-81
2022/01/17 08:28:13;;;;;;;7.07;2.42;;;26.40;99.90;;;;;;5027464;28;20214;-80
2022/01/17 08:30:44;;;;;;;5.90;2.40;;;26.40;99.90;;;;;;5027033;28;20209;-83
2022/01/17 08:33:14;;;;;;;8.95;2.70;;;26.40;99.90;;;;;;5027453;28;20202;-82
2022/01/17 08:35:45;;;;;;;6.78;2.30;;;26.40;99.90;;;;;;5026961;28;20198;-83
2022/01/17 08:38:16;;;;;;;7.40;2.35;;;26.40;99.90;;;;;;5026530;28;20677;-83
2022/01/17 08:40:49;;;;;;;5.75;2.08;;;26.30;99.90;;;;;;5027219;28;20812;-82
2022/01/17 08:43:20;;;;;;;8.50;2.42;;;26.30;99.90;;;;;;5026499;28;20228;-80
2022/01/17 08:45:51;;;;;;;8.15;2.70;;;26.30;99.90;;;;;;5027682;28;20627;-83
2022/01/17 08:48:21;;;;;;;6.05;2.53;;;26.30;99.90;;;;;;5026158;28;20662;-82
2022/01/17 08:50:52;;;;;;;6.43;2.20;;;26.30;99.90;;;;;;5027073;28;20198;-81
2022/01/17 08:53:22;;;;;;;7.78;2.30;;;26.30;99.90;;;;;;5025991;28;20265;-83
2022/01/17 08:55:55;;;;;;;5.78;2.35;;;26.20;99.90;;;;;;5027131;28;20549;-83
2022/01/17 08:58:26;;;;;;;6.18;2.38;;;26.20;99.90;;;;;;5027369;28;20198;-81
2022/01/17 09:00:57;;;;;;;5.65;2.30;;;26.20;99.90;;;;;;5026344;28;20592;-82
2022/01/17 09:03:27;;;;;;;5.10;2.00;;;26.20;99.90;;;;;;5024856;28;20198;-82
2022/01/17 09:05:58;;;;;;;7.07;2.35;;;26.20;99.90;;;;;;5026194;28;20582;-81
2022/01/17 09:08:29;;;;;;;5.95;2.28;;;26.20;99.90;;;;;;5026091;28;20226;-83
2022/01/17 09:11:02;;;;;;;4.30;1.90;;;26.20;99.90;;;;;;5026743;28;20210;-83
2022/01/17 09:13:32;;;;;;;7.90;2.47;;;26.20;99.90;;;;;;5025936;28;20202;-82
2022/01/17 09:16:03;;;;;;;6.00;2.47;;;26.20;99.90;;;;;;5025234;28;20198;-82
2022/01/17 09:18:37;;;;;;;9.50;2.40;;;26.20;99.90;;;;;;5024076;28;20588;-82
2022/01/17 09:21:09;;;;;;;5.43;2.10;;;26.20;99.90;;;;;;5024023;28;20712;-82
2022/01/17 09:23:39;;;;;;;5.70;2.25;;;26.20;99.90;;;;;;5026686;28;20299;-82
2022/01/17 09:26:13;;;;;;;6.90;2.08;;;26.10;99.90;;;;;;5027938;28;20194;-81
2022/01/17 09:29:13;;;;;;;5.22;2.30;;;26.10;99.90;;;;;;5025678;28;20195;-82
2022/01/17 09:32:00;;;;;;;8.57;2.20;;;26.10;99.90;;;;;;5025469;28;20206;-82
2022/01/17 09:34:31;;;;;;;6.93;2.10;;;26.10;99.90;;;;;;5025517;28;20198;-82
2022/01/17 09:37:02;;;;;;;5.10;1.85;;;26.10;99.90;;;;;;5026490;28;20622;-82
2022/01/17 09:39:33;;;;;;;5.35;1.90;;;26.10;99.90;;;;;;5025652;28;20237;-83
2022/01/17 09:42:06;;;;;;;5.95;1.90;;;26.10;99.90;;;;;;5024541;28;20232;-83
2022/01/17 09:44:37;;;;;;;7.05;1.95;;;26.10;99.90;;;;;;5025626;28;20206;-83
2022/01/17 09:47:09;;;;;;;4.60;1.77;;;26.10;99.90;;;;;;5024551;28;20202;-84
2022/01/17 09:49:44;;;;;;;5.20;1.70;;;26.10;99.90;;;;;;5027708;28;20195;-81
2022/01/17 09:52:33;;;;;;;3.92;1.70;;;26.00;99.90;;;;;;5022371;28;20197;-81
2022/01/17 09:55:14;;;;;;;4.45;1.58;;;26.00;99.90;;;;;;5029285;28;20201;-83
2022/01/17 09:57:52;;;;;;;8.20;2.05;;;26.00;99.90;;;;;;5031031;28;20190;-84
2022/01/17 10:00:26;;;;;;;7.35;1.92;;;26.00;99.90;;;;;;5030050;28;20212;-83
2022/01/17 10:02:58;;;;;;;6.63;1.95;;;26.00;99.90;;;;;;5023999;28;20214;-83
2022/01/17 10:05:29;;;;;;;7.35;2.03;;;26.00;99.90;;;;;;5032458;28;20201;-84
2022/01/17 10:08:05;;;;;;;6.03;2.00;;;25.90;99.90;;;;;;5026527;28;20186;-83
2022/01/17 10:10:45;;;;;;;5.63;1.85;;;25.90;99.90;;;;;;5032926;28;20186;-82
2022/01/17 10:13:23;;;;;;;6.75;2.05;;;26.00;99.90;;;;;;5025220;28;20277;-84
2022/01/17 10:16:02;;;;;;;7.25;2.10;;;25.90;99.90;;;;;;5029702;28;20196;-84
2022/01/17 10:18:36;;;;;;;6.40;1.95;;;25.90;99.90;;;;;;5032654;28;20190;-84
2022/01/17 10:21:11;;;;;;;6.80;1.90;;;25.90;99.90;;;;;;5030060;28;20210;-84
2022/01/17 10:23:59;;;;;;;7.53;1.92;;;25.90;99.90;;;;;;5033290;28;20226;-84
2022/01/17 10:26:52;;;;;;;5.15;2.13;;;25.90;99.90;;;;;;5031435;28;20277;-84
2022/01/17 10:35:13;;;;;;;7.18;2.10;;;25.90;99.90;;;;;;5028533;28;20190;-84
2022/01/17 10:38:05;;;;;;;8.85;2.15;;;25.90;99.90;;;;;;5032521;28;20187;-84
2022/01/17 10:40:37;;;;;;;4.93;1.80;;;25.80;99.90;;;;;;5033887;28;20186;-83
2022/01/17 10:43:19;;;;;;;5.65;2.00;;;25.80;99.90;;;;;;5036405;28;20221;-83
2022/01/17 10:45:53;;;;;;;6.43;2.08;;;25.80;99.90;;;;;;5037305;28;20197;-83
2022/01/17 10:48:36;;;;;;;5.07;1.67;;;25.80;99.90;;;;;;5037112;28;20194;-81
2022/01/17 10:51:09;;;;;;;7.20;2.25;;;25.80;99.90;;;;;;5030850;28;20206;-84
2022/01/17 10:53:41;;;;;;;8.43;2.20;;;25.80;99.90;;;;;;5034518;28;20780;-83
2022/01/17 10:56:13;;;;;;;6.32;2.05;;;25.70;99.90;;;;;;5030363;28;20285;-83
2022/01/17 10:58:44;;;;;;;8.23;2.40;;;25.70;99.90;;;;;;5034886;28;20639;-82
2022/01/17 11:01:18;;;;;;;7.38;1.98;;;25.70;99.90;;;;;;5032026;28;20221;-84
2022/01/17 11:03:59;;;;;;;5.93;2.13;;;25.70;99.90;;;;;;5034226;28;20191;-84
2022/01/17 11:06:30;;;;;;;6.05;2.20;;;25.60;99.90;;;;;;5034819;28;20201;-84
2022/01/17 11:09:08;;;;;;;5.70;2.13;;;25.60;99.90;;;;;;5038234;28;20222;-84
2022/01/17 11:11:42;;;;;;;6.18;2.10;;;25.60;99.90;;;;;;5034212;28;20202;-82
2022/01/17 11:14:12;;;;;;;6.70;2.30;;;25.60;99.90;;;;;;5035080;28;20256;-84
2022/01/17 11:16:45;;;;;;;5.63;2.28;;;25.60;99.90;;;;;;5034913;28;20198;-81
2022/01/17 11:21:59;;;;;;;6.28;2.00;;;25.60;99.90;;;;;;5038890;28;20741;-82
2022/01/17 11:24:30;;;;;;;4.72;2.20;;;25.60;99.90;;;;;;5037924;28;20230;-82
2022/01/17 11:27:03;;;;;;;8.63;2.63;;;25.60;99.90;;;;;;5039515;28;20183;-81
2022/01/17 11:29:34;;;;;;;7.35;2.13;;;25.60;99.90;;;;;;5034365;28;20262;-81
2022/01/17 11:32:07;;;;;;;10.98;2.15;;;25.50;99.90;;;;;;5034271;28;20202;-82
2022/01/17 11:34:38;;;;;;;6.90;2.28;;;25.50;99.90;;;;;;5034488;28;20690;-81
2022/01/17 11:37:09;;;;;;;5.93;2.20;;;25.50;99.90;;;;;;5033449;28;20187;-80
2022/01/17 11:39:48;;;;;;;8.25;2.40;;;25.50;99.90;;;;;;5034239;28;20528;-80
2022/01/17 11:42:37;;;;;;;5.65;2.10;;;25.50;99.90;;;;;;5033719;28;20724;-81
2022/01/17 11:45:36;;;;;;;5.68;2.10;;;25.50;99.90;;;;;;5039645;28;20662;-82
2022/01/17 11:48:11;;;;;;;7.38;2.50;;;25.40;99.90;;;;;;5031356;28;20190;-82
2022/01/17 11:50:47;;;;;;;6.82;2.20;;;25.40;99.90;;;;;;5029943;28;20197;-82
2022/01/17 11:53:40;;;;;;;8.20;2.30;;;25.40;99.90;;;;;;5034058;28;20259;-83
2022/01/17 11:56:11;;;;;;;8.93;2.33;;;25.40;99.90;;;;;;5035712;28;20194;-81
2022/01/17 11:58:44;;;;;;;7.03;2.90;;;25.40;99.90;;;;;;5033118;28;20697;-82
2022/01/17 12:01:24;;;;;;;8.82;2.20;;;25.40;99.90;;;;;;5033974;28;20201;-83
2022/01/17 12:03:58;;;;;;;8.65;2.53;;;25.40;99.90;;;;;;5030161;28;20527;-83
2022/01/17 12:06:34;;;;;;;6.65;2.47;;;25.40;99.90;;;;;;5030003;28;20601;-82
2022/01/17 12:09:23;;;;;;;7.25;2.38;;;25.40;99.90;;;;;;5030749;28;20186;-82
2022/01/17 12:12:13;;;;;;;5.00;2.30;;;25.40;99.90;;;;;;5033952;28;20194;-82
2022/01/17 12:14:52;;;;;;;6.40;2.45;;;25.40;99.90;;;;;;5031579;28;20186;-82
2022/01/17 12:17:31;;;;;;;8.07;2.60;;;25.40;99.90;;;;;;5039215;28;20186;-83
2022/01/17 12:20:47;;;;;;;6.20;2.25;;;25.40;99.90;;;;;;5032539;28;20202;-83
2022/01/17 12:23:27;;;;;;;5.68;2.47;;;25.40;99.90;;;;;;4974166;28;20303;-83
2022/01/17 12:26:18;;;;;;;7.28;2.40;;;25.40;99.90;;;;;;5036915;28;20198;-82
2022/01/17 12:28:56;;;;;;;8.82;2.80;;;25.40;99.90;;;;;;5029376;28;20268;-82
2022/01/17 12:31:42;;;;;;;6.80;2.88;;;25.40;99.90;;;;;;5033040;28;20193;-84
2022/01/17 12:34:22;;;;;;;8.20;2.75;;;25.40;99.90;;;;;;5031631;28;20198;-82
2022/01/17 12:36:58;;;;;;;7.35;2.85;;;25.40;99.90;;;;;;5032563;28;20259;-84
2022/01/17 12:39:30;;;;;;;6.90;2.70;;;25.40;99.90;;;;;;5023203;28;20255;-84
2022/01/17 12:42:04;;;;;;;5.50;2.28;;;25.30;99.90;;;;;;5028662;28;20217;-84
2022/01/17 12:44:39;;;;;;;10.35;2.90;;;25.40;99.90;;;;;;5027808;28;20300;-84
2022/01/17 12:47:10;;;;;;;6.07;2.70;;;25.30;99.90;;;;;;5032657;28;20657;-85
2022/01/17 12:49:41;;;;;;;7.15;2.63;;;25.30;99.90;;;;;;5035579;28;20545;-84
2022/01/17 12:52:15;;;;;;;7.40;2.28;;;25.40;99.90;;;;;;5029140;28;20218;-84
2022/01/17 12:54:50;;;;;;;5.10;2.13;;;25.40;99.90;;;;;;5031491;28;20209;-84
2022/01/17 12:57:27;;;;;;;7.57;2.88;;;25.30;99.90;;;;;;5032821;28;20280;-83
2022/01/17 12:59:59;;;;;;;4.72;2.38;;;25.40;99.90;;;;;;5030965;28;20186;-82
2022/01/17 13:02:30;;;;;;;7.13;2.70;;;25.40;99.90;;;;;;5031746;28;20218;-81
2022/01/17 13:05:00;;;;;;;6.63;2.30;;;25.30;99.90;;;;;;5035946;28;20840;-81
2022/01/17 13:07:33;;;;;;;5.10;2.53;;;25.30;99.90;;;;;;5035841;28;20190;-81
2022/01/17 13:10:04;;;;;;;7.65;2.40;;;25.40;99.90;;;;;;5034099;28;20223;-81
2022/01/17 13:12:35;;;;;;;9.55;2.95;;;25.40;99.90;;;;;;5036040;28;20260;-81
2022/01/17 13:15:07;;;;;;;6.53;2.50;;;25.40;99.90;;;;;;5035651;28;20189;-81
2022/01/17 13:17:37;;;;;;;6.47;2.40;;;25.30;99.90;;;;;;5035665;28;20209;-81
2022/01/17 13:20:10;;;;;;;5.53;2.20;;;25.30;99.90;;;;;;5029497;28;20194;-81
2022/01/17 13:22:53;;;;;;;4.35;2.30;;;25.30;99.90;;;;;;5032846;28;20708;-81
2022/01/17 13:25:24;;;;;;;5.95;2.10;;;25.30;99.90;;;;;;5029132;28;20226;-82
2022/01/17 13:27:58;;;;;;;4.88;2.20;;;25.30;99.90;;;;;;5032122;28;20195;-81